createdAt,value
2022-09-21T00:01:59.384Z,48.55
2022-09-21T00:07:00.916Z,49.40
2022-09-21T00:12:02.929Z,49.46
2022-09-21T00:17:04.450Z,49.49
2022-09-21T00:22:07.351Z,49.53
2022-09-21T00:27:08.821Z,50.16
2022-09-21T00:32:10.460Z,49.93
2022-09-21T00:37:11.938Z,49.47
2022-09-21T00:42:18.171Z,49.97
2022-09-21T00:47:34.106Z,50.82
2022-09-21T00:52:38.128Z,50.47
2022-09-21T00:57:39.606Z,50.12
2022-09-21T01:02:41.085Z,51.03
2022-09-21T01:07:44.930Z,50.74
2022-09-21T01:13:09.752Z,50.75
2022-09-21T01:18:32.595Z,50.76
2022-09-21T01:23:55.557Z,51.73
2022-09-21T01:29:20.182Z,51.34
2022-09-21T01:34:54.635Z,51.22
2022-09-21T01:39:58.119Z,51.60
2022-09-21T01:45:00.961Z,51.58
2022-09-21T01:50:02.774Z,51.63
2022-09-21T01:55:28.206Z,51.99
2022-09-21T02:00:30.344Z,52.19
2022-09-21T02:05:31.913Z,52.61
2022-09-21T02:10:50.306Z,52.63
2022-09-21T02:15:55.840Z,52.46
2022-09-21T02:20:57.859Z,52.63
2022-09-21T02:26:08.121Z,52.38
2022-09-21T02:31:24.728Z,52.84
2022-09-21T02:36:37.166Z,52.34
2022-09-21T02:41:46.461Z,52.99
2022-09-21T02:46:59.251Z,52.60
2022-09-21T02:52:03.479Z,52.39
2022-09-21T02:57:04.957Z,52.17
2022-09-21T03:02:07.057Z,51.82
2022-09-21T03:07:09.018Z,52.84
2022-09-21T03:12:10.479Z,52.34
2022-09-21T03:17:12.160Z,52.48
2022-09-21T03:22:13.668Z,52.34
2022-09-21T03:27:16.550Z,52.19
2022-09-21T03:32:18.035Z,51.67
2022-09-21T03:37:19.514Z,52.69
2022-09-21T03:42:20.987Z,52.07
2022-09-21T03:47:22.482Z,52.51
2022-09-21T03:52:23.983Z,53.05
2022-09-21T03:57:25.533Z,52.07
2022-09-21T04:02:27.210Z,52.79
2022-09-21T04:07:34.424Z,52.64
2022-09-21T04:12:36.347Z,52.79
2022-09-21T04:17:37.855Z,52.43
2022-09-21T04:22:43.399Z,53.03
2022-09-21T04:27:45.246Z,52.73
2022-09-21T04:32:46.779Z,52.51
2022-09-21T04:37:48.265Z,53.01
2022-09-21T04:42:53.413Z,53.04
2022-09-21T04:47:54.887Z,52.66
2022-09-21T04:52:58.321Z,53.28
2022-09-21T04:57:59.799Z,53.25
2022-09-21T05:03:01.263Z,53.41
2022-09-21T05:08:02.736Z,53.75
2022-09-21T05:13:04.202Z,53.86
2022-09-21T05:18:06.022Z,53.39
2022-09-21T05:23:07.503Z,53.52
2022-09-21T05:28:09.114Z,53.01
2022-09-21T05:33:11.764Z,53.89
2022-09-21T05:38:13.811Z,54.34
2022-09-21T05:43:15.411Z,53.79
2022-09-21T05:48:18.943Z,54.75
2022-09-21T05:53:57.815Z,54.01
2022-09-21T05:59:03.077Z,54.13
2022-09-21T06:04:04.753Z,54.23
2022-09-21T06:09:06.248Z,54.40
2022-09-21T06:14:07.731Z,54.68
2022-09-21T06:19:12.579Z,54.99
2022-09-21T06:24:14.071Z,55.08
2022-09-21T06:29:15.569Z,54.99
2022-09-21T06:34:17.479Z,54.50
2022-09-21T06:39:18.942Z,54.02
2022-09-21T06:44:20.421Z,53.10
2022-09-21T06:49:21.898Z,52.47
2022-09-21T06:54:24.554Z,52.01
2022-09-21T06:59:26.024Z,50.79
2022-09-21T07:04:29.129Z,50.81
2022-09-21T07:14:52.443Z,50.14
2022-09-21T07:19:53.912Z,48.98
2022-09-21T07:24:55.491Z,47.90
2022-09-21T07:29:56.995Z,48.33
2022-09-21T07:34:58.480Z,47.40
2022-09-21T07:40:02.749Z,47.13
2022-09-21T07:45:05.012Z,46.97
2022-09-21T07:50:06.729Z,46.08
2022-09-21T07:55:08.447Z,45.60
2022-09-21T08:00:10.589Z,45.70
2022-09-21T08:05:12.100Z,45.23
2022-09-21T08:10:13.592Z,45.14
2022-09-21T08:15:37.103Z,43.97
2022-09-21T08:20:36.642Z,43.83
2022-09-21T08:25:38.124Z,44.12
2022-09-21T08:30:39.595Z,43.24
2022-09-21T08:35:41.079Z,42.31
2022-09-21T08:40:42.660Z,42.79
2022-09-21T08:45:44.853Z,42.22
2022-09-21T08:50:46.700Z,41.78
2022-09-21T08:55:48.192Z,42.24
2022-09-21T09:01:14.387Z,41.64
2022-09-21T09:06:26.744Z,42.10
2022-09-21T09:11:44.184Z,40.91
2022-09-21T09:16:54.299Z,40.80
2022-09-21T09:21:56.223Z,41.16
2022-09-21T09:27:02.226Z,41.42
2022-09-21T09:32:03.762Z,40.82
2022-09-21T09:37:13.062Z,40.38
2022-09-21T09:42:25.148Z,40.76
2022-09-21T09:47:44.924Z,40.15
2022-09-21T09:52:46.692Z,40.22
2022-09-21T09:57:48.197Z,40.75
2022-09-21T10:02:51.403Z,40.63
2022-09-21T10:07:53.183Z,40.79
2022-09-21T10:12:55.362Z,39.95
2022-09-21T10:18:07.737Z,39.68
2022-09-21T10:23:09.864Z,39.22
2022-09-21T10:28:12.051Z,39.88
2022-09-21T10:33:20.271Z,40.04
2022-09-21T10:38:27.420Z,39.29
2022-09-21T10:43:39.878Z,38.94
2022-09-21T10:48:47.539Z,38.13
2022-09-21T10:53:53.883Z,37.83
2022-09-21T10:59:24.811Z,37.64
2022-09-21T11:04:41.201Z,37.55
2022-09-21T11:09:56.912Z,37.84
2022-09-21T11:15:20.020Z,37.29
2022-09-21T11:20:42.585Z,36.70
2022-09-21T11:25:49.639Z,36.51
2022-09-21T11:31:05.143Z,36.24
2022-09-21T11:36:53.052Z,36.56
2022-09-21T11:42:27.162Z,34.72
2022-09-21T11:47:50.227Z,34.88
2022-09-21T11:53:17.448Z,35.48
2022-09-21T11:58:23.284Z,35.16
2022-09-21T12:03:30.837Z,35.66
2022-09-21T12:08:48.693Z,35.95
2022-09-21T12:14:08.027Z,34.66
2022-09-21T12:19:40.299Z,34.91
2022-09-21T12:24:47.942Z,34.58
2022-09-21T12:29:53.219Z,34.02
2022-09-21T12:35:00.612Z,34.50
2022-09-21T12:40:17.976Z,33.33
2022-09-21T12:45:40.471Z,34.09
2022-09-21T12:50:48.303Z,33.31
2022-09-21T12:56:09.640Z,33.58
2022-09-21T13:01:41.955Z,34.26
2022-09-21T13:07:14.607Z,34.26
2022-09-21T13:12:19.011Z,34.64
2022-09-21T13:17:25.110Z,33.61
2022-09-21T13:22:27.325Z,31.91
2022-09-21T13:28:00.560Z,32.65
2022-09-21T13:33:03.691Z,31.54
2022-09-21T13:38:44.231Z,33.13
2022-09-21T13:43:50.443Z,33.06
2022-09-21T13:48:53.154Z,34.11
2022-09-21T13:53:56.660Z,32.72
2022-09-21T13:58:58.149Z,32.46
2022-09-21T14:04:21.088Z,33.20
2022-09-21T14:09:28.551Z,32.61
2022-09-21T14:14:37.326Z,31.21
2022-09-21T14:19:38.647Z,33.21
2022-09-21T14:24:44.815Z,33.65
2022-09-21T14:29:53.007Z,32.15
2022-09-21T14:34:57.102Z,32.31
2022-09-21T14:39:59.037Z,32.73
2022-09-21T14:45:02.075Z,32.79
2022-09-21T14:50:45.538Z,33.26
2022-09-21T14:56:22.390Z,33.87
2022-09-21T15:01:33.912Z,34.67
2022-09-21T15:07:00.404Z,34.80
2022-09-21T15:12:09.361Z,35.84
2022-09-21T15:17:28.700Z,35.92
2022-09-21T15:22:31.854Z,35.98
2022-09-21T15:27:33.729Z,36.40
2022-09-21T15:32:36.277Z,35.64
2022-09-21T15:37:39.544Z,36.21
2022-09-21T15:43:00.850Z,36.76
2022-09-21T15:48:02.200Z,37.27
2022-09-21T15:53:05.640Z,37.18
2022-09-21T15:58:20.747Z,37.18
2022-09-21T16:03:23.235Z,37.76
2022-09-21T16:08:30.134Z,37.83
2022-09-21T16:13:50.718Z,38.32
2022-09-21T16:18:55.125Z,38.86
2022-09-21T16:23:57.328Z,38.85
2022-09-21T16:29:17.768Z,40.12
2022-09-21T16:34:21.744Z,40.52
2022-09-21T16:39:23.779Z,41.97
2022-09-21T16:44:25.773Z,41.88
2022-09-21T16:49:33.574Z,41.98
2022-09-21T16:54:37.430Z,42.19
2022-09-21T16:59:38.923Z,42.50
2022-09-21T17:04:40.435Z,42.18
2022-09-21T17:09:47.645Z,41.93
2022-09-21T17:14:51.547Z,42.50
2022-09-21T17:19:53.682Z,43.15
2022-09-21T17:24:55.158Z,43.00
2022-09-21T17:29:57.029Z,43.05
2022-09-21T17:35:01.602Z,43.04
2022-09-21T17:40:09.878Z,43.16
2022-09-21T17:45:30.611Z,43.08
2022-09-21T17:50:32.235Z,42.73
2022-09-21T17:55:33.890Z,42.62
2022-09-21T18:01:00.715Z,43.80
2022-09-21T18:06:02.315Z,43.83
2022-09-21T18:11:19.022Z,44.41
2022-09-21T18:16:27.634Z,43.84
2022-09-21T18:21:29.130Z,42.88
2022-09-21T18:26:30.908Z,43.96
2022-09-21T18:31:43.757Z,45.05
2022-09-21T18:36:48.550Z,45.72
2022-09-21T18:42:05.879Z,46.41
2022-09-21T18:47:15.588Z,45.57
2022-09-21T18:52:38.938Z,46.43
2022-09-21T18:57:40.692Z,46.76
2022-09-21T19:02:58.952Z,46.84
2022-09-21T19:08:10.531Z,46.82
2022-09-21T19:13:27.316Z,47.62
2022-09-21T19:18:53.920Z,48.11
2022-09-21T19:24:19.883Z,48.72
2022-09-21T19:29:51.070Z,48.38
2022-09-21T19:34:52.672Z,48.11
2022-09-21T19:39:54.231Z,48.75
2022-09-21T19:45:15.930Z,47.81
2022-09-21T19:50:18.275Z,48.20
2022-09-21T19:55:39.424Z,47.27
2022-09-21T20:00:41.100Z,47.93
2022-09-21T20:06:05.675Z,48.13
2022-09-21T20:11:25.328Z,47.95
2022-09-21T20:16:40.567Z,48.30
2022-09-21T20:21:42.516Z,48.99
2022-09-21T20:26:44.073Z,48.16
2022-09-21T20:31:47.351Z,49.06
2022-09-21T20:36:48.821Z,48.87
2022-09-21T20:41:50.287Z,48.79
2022-09-21T20:46:51.759Z,49.25
2022-09-21T20:51:53.227Z,48.25
2022-09-21T20:56:54.701Z,48.42
2022-09-21T21:01:56.237Z,48.33
2022-09-21T21:06:57.735Z,48.54
2022-09-21T21:11:59.326Z,49.52
2022-09-21T21:17:02.349Z,49.63
2022-09-21T21:22:03.925Z,49.10
2022-09-21T21:27:05.898Z,49.54
2022-09-21T21:32:07.416Z,49.81
2022-09-21T21:37:09.546Z,49.79
2022-09-21T21:42:11.030Z,49.06
2022-09-21T21:47:38.097Z,48.36
2022-09-21T21:52:34.514Z,49.70
2022-09-21T21:57:35.984Z,49.89
2022-09-21T22:02:37.596Z,50.01
2022-09-21T22:07:39.959Z,49.66
2022-09-21T22:12:44.985Z,50.00
2022-09-21T22:17:46.577Z,50.01
2022-09-21T22:22:48.481Z,50.22
2022-09-21T22:27:49.948Z,50.23
2022-09-21T22:32:51.680Z,50.29
2022-09-21T22:37:54.503Z,49.93
2022-09-21T22:42:55.954Z,50.27
2022-09-21T22:47:57.437Z,50.17
2022-09-21T22:52:58.904Z,50.12
2022-09-21T22:58:00.587Z,50.64
2022-09-21T23:03:02.185Z,50.05
2022-09-21T23:08:03.745Z,50.64
2022-09-21T23:13:05.719Z,50.55
2022-09-21T23:18:07.193Z,50.63
2022-09-21T23:23:08.915Z,50.85
2022-09-21T23:28:10.464Z,51.26
2022-09-21T23:33:11.938Z,50.87
2022-09-21T23:38:13.475Z,51.62
2022-09-21T23:43:14.972Z,50.98
2022-09-21T23:48:16.442Z,51.36
2022-09-21T23:53:17.960Z,51.34
2022-09-21T23:58:19.641Z,52.09
